Flight Track Log - Related Links

Times and Time Zones

All times are in EDT time to prevent confusion due to time zone crossing. See the SKW6472 flight status page for this flight to view local times or setup timezone preferences in your user account.

Time Position Orientation Groundspeed Altitude Reporting Facility
EDT Latitude Longitude Course Direction KTS MPH feet Rate Location/Type
Fri 11:15:12 AM 33.9317 -118.4458 90° East 181 208 1,700  Level Los Angeles Center
Fri 11:16:14 AM 33.8828 -118.5100 227° Southwest 258 297 3,600 2,032 Climbing Los Angeles Center
Fri 11:17:00 AM 33.7516 -118.6022 132° Southeast  Level FlightAware Approximate
Fri 11:17:16 AM 33.8156 -118.5183 186° South 273 314 5,900  Level Los Angeles Center
Fri 11:18:00 AM 33.6770 -118.4785 101° East  Level FlightAware Approximate
Fri 11:18:18 AM 33.7222 -118.5181 180° South 284 327 9,800  Level Los Angeles Center
Fri 11:19:00 AM 33.6333 -118.3315 90° East  Level FlightAware Approximate
Fri 11:19:20 AM 33.6708 -118.4311 125° Southeast 328 377 11,900  Level Los Angeles Center
Fri 11:20:00 AM 33.6333 -118.1741 90° East  Level FlightAware Approximate
Fri 11:20:22 AM 33.6450 -118.3233 106° East 357 411 13,900  Level Los Angeles Center
Fri 11:21:24 AM 33.6444 -118.1989 90° East 385 443 15,800 2,032 Climbing Los Angeles Center
Fri 11:22:26 AM 33.6439 -118.0394 90° East 402 463 18,100 2,032 Climbing Los Angeles Center
Fri 11:23:28 AM 33.6431 -117.9003 90° East 417 480 20,000 1,839 Climbing Los Angeles Center
Fri 11:24:30 AM 33.6428 -117.7589 90° East 424 488 21,900 1,597 Climbing Los Angeles Center
Fri 11:25:32 AM 33.6422 -117.6128 90° East 434 499 23,300 1,210 Climbing Los Angeles Center
Fri 11:26:34 AM 33.6411 -117.4617 90° East 448 516 24,400 1,103 Climbing Los Angeles Center
Fri 11:27:48 AM 33.6403 -117.2719 90° East 470 541 25,800 1,445 Climbing Los Angeles Center
Fri 11:28:51 AM 33.6669 -117.0828 80° East 481 554 27,700 1,584 Climbing Los Angeles Center
Fri 11:29:53 AM 33.6958 -116.9300 77° East 480 552 29,100 1,270 Climbing Los Angeles Center
Fri 11:31:08 AM 33.7331 -116.7400 77° East 479 551 30,600 832 Climbing Los Angeles Center
Fri 11:32:10 AM 33.7608 -116.5817 78° East 483 556 31,000 194 Climbing Los Angeles Center
Fri 11:33:12 AM 33.7931 -116.4147 77° East 507 583 31,000  Level Los Angeles Center
Fri 11:34:14 AM 33.8294 -116.2086 78° East 522 601 31,000 -48 Level Los Angeles Center
Fri 11:35:16 AM 33.8608 -116.0383 77° East 521 600 30,900  Descending Los Angeles Center
Fri 11:36:18 AM 33.8908 -115.8689 78° East 518 596 31,000 48 Climbing Los Angeles Center
Fri 11:37:20 AM 33.9214 -115.6983 78° East 521 600 31,000  Level Los Angeles Center
Fri 11:38:22 AM 33.9514 -115.5314 78° East 513 590 31,000  Level Los Angeles Center
Fri 11:39:24 AM 33.9814 -115.3633 78° East 511 588 31,000 -48 Level Los Angeles Center
Fri 11:40:27 AM 34.0172 -115.1631 78° East 512 589 30,900  Descending Los Angeles Center
Fri 11:41:29 AM 34.0458 -114.9958 78° East 510 587 31,000 48 Climbing Los Angeles Center
Fri 11:42:31 AM 34.0767 -114.8261 78° East 517 595 31,000  Level Los Angeles Center
Fri 11:43:33 AM 34.1036 -114.6522 79° East 524 603 31,000 -48 Level Los Angeles Center
Fri 11:44:35 AM 34.1164 -114.4786 85° East 521 600 30,900  Descending Los Angeles Center
Fri 11:45:04 AM 34.1256 -114.3697 84° East 522 601 31,000 66 Climbing Albuquerque Center
Fri 11:46:06 AM 34.1406 -114.1939 84° East 522 601 31,000  Level Albuquerque Center
Fri 11:47:08 AM 34.1544 -114.0247 84° East 514 592 31,000  Level Albuquerque Center
Fri 11:48:10 AM 34.1664 -113.8567 85° East 507 583 31,000  Level Albuquerque Center
Fri 11:49:13 AM 34.1792 -113.6878 85° East 506 582 31,000  Level Albuquerque Center
Fri 11:50:15 AM 34.1906 -113.5092 86° East 504 580 31,000  Level Albuquerque Center
Fri 11:51:17 AM 34.1983 -113.3425 87° East 502 578 31,000  Level Albuquerque Center
Fri 11:52:19 AM 34.2106 -113.1769 85° East 498 573 31,000  Level Albuquerque Center
Fri 11:53:21 AM 34.2225 -113.0097 85° East 498 573 31,000  Level Albuquerque Center
Fri 11:54:23 AM 34.2369 -112.8089 85° East 500 575 31,000  Level Albuquerque Center
Fri 11:55:25 AM 34.2483 -112.6425 85° East 499 574 31,000  Level Albuquerque Center
Fri 11:56:27 AM 34.2606 -112.4750 85° East 499 574 31,000  Level Albuquerque Center
Fri 11:57:29 AM 34.2703 -112.3094 86° East 496 571 31,000  Level Albuquerque Center
Fri 11:58:31 AM 34.2794 -112.1425 86° East 496 571 31,000  Level Albuquerque Center
Fri 11:59:33 AM 34.2903 -111.9733 86° East 498 573 31,000  Level Albuquerque Center
Fri 12:00:35 PM 34.3003 -111.8022 86° East 503 579 31,000  Level Albuquerque Center
Fri 12:01:38 PM 34.3094 -111.6308 86° East 505 581 31,000  Level Albuquerque Center
Fri 12:02:39 PM 34.3214 -111.4253 86° East 507 583 31,000  Level Albuquerque Center
Fri 12:03:41 PM 34.3300 -111.2567 86° East 503 579 31,000  Level Albuquerque Center
Fri 12:04:43 PM 34.3392 -111.0875 86° East 503 579 31,000  Level Albuquerque Center
Fri 12:05:45 PM 34.3486 -110.9203 86° East 501 577 31,000  Level Albuquerque Center
Fri 12:06:47 PM 34.3553 -110.7531 87° East 498 573 31,000  Level Albuquerque Center
Fri 12:07:49 PM 34.3650 -110.5861 86° East 499 574 31,000  Level Albuquerque Center
Fri 12:08:51 PM 34.3739 -110.3800 87° East 500 575 31,000  Level Albuquerque Center
Fri 12:09:53 PM 34.3811 -110.2172 87° East 504 580 31,000  Level Albuquerque Center
Fri 12:10:55 PM 34.3886 -110.0294 87° East 502 578 31,000  Level Albuquerque Center
Fri 12:11:57 PM 34.3953 -109.8686 87° East 503 579 31,000  Level Albuquerque Center
Fri 12:12:59 PM 34.4036 -109.6803 87° East 503 579 31,000  Level Albuquerque Center
Fri 12:14:02 PM 34.4100 -109.5194 87° East 503 579 31,000  Level Albuquerque Center
Fri 12:15:04 PM 34.4161 -109.3575 87° East 502 578 31,000  Level Albuquerque Center
Fri 12:16:06 PM 34.4517 -109.1733 77° East 510 587 31,000  Level Albuquerque Center
Fri 12:17:08 PM 34.4856 -109.0169 75° East 507 583 31,000  Level Albuquerque Center
Fri 12:18:10 PM 34.5242 -108.8339 76° East 504 580 31,000  Level Albuquerque Center
Fri 12:19:12 PM 34.5578 -108.6767 75° East 505 581 31,000  Level Albuquerque Center
Fri 12:20:14 PM 34.5975 -108.4942 75° East 503 579 31,000  Level Albuquerque Center
Fri 12:21:19 PM 34.6306 -108.3383 76° East 506 582 31,000  Level Albuquerque Center
Fri 12:22:18 PM 34.6653 -108.1733 76° East 506 582 31,000 -1,339 Level Albuquerque Center
Fri 12:23:20 PM 34.6986 -108.0119 76° East 499 574 28,300 -3,242 Descending Albuquerque Center
Fri 12:24:22 PM 34.7372 -107.8244 76° East 483 556 24,300 -3,677 Descending Albuquerque Center
Fri 12:25:24 PM 34.7689 -107.6692 76° East 475 547 20,700 -3,339 Descending Albuquerque Center
Fri 12:26:26 PM 34.7992 -107.5217 76° East 458 527 17,400 -3,570 Descending Albuquerque Center
Fri 12:26:43 PM 34.8094 -107.4639 78° East 445 512 16,000 -3,097 Descending Albuquerque Center
Fri 12:27:28 PM 34.8272 -107.3786 76° East 444 511 14,200 -1,967 Descending Albuquerque Center
Fri 12:27:44 PM 34.8372 -107.3256 77° East 422 486 14,000 -387 Descending Albuquerque Center
Fri 12:28:30 PM 34.8611 -107.2558 67° East 390 449 13,800 -944 Descending Albuquerque Center
Fri 12:29:32 PM 34.9044 -107.1536 63° Northeast 351 404 12,300 -1,569 Descending Albuquerque Center
Fri 12:30:40 PM 34.9583 -107.0236 63° Northeast 324 373 10,400 -1,488 Descending Albuquerque Center
Fri 12:31:37 PM 34.9911 -106.9425 64° Northeast 323 372 9,200 -1,008 Descending Albuquerque Center
Fri 12:32:39 PM 35.0253 -106.8583 64° Northeast 303 349 8,400 -581 Descending Albuquerque Center
Fri 12:33:41 PM 35.0439 -106.7878 72° East 258 297 8,000 -387 Descending Albuquerque Center

Login

Don't have an account? Register now (free) for customized features, flight alerts, and more!